Hailesboro, New York
Current Conditions -  °F | °C
As of 8:58 AM on Wednesday 26 Nov 2014 (Local Time) from KGTB Reporting Station
Overcast Overcast  
Wind Chill: 26°   Ceiling: 3000
Heat Index: 31°   Visibility: 10mi
Dew Point: 25°   Wind: 5mph
Humidity: 79%   Direction: 40°NE
Pressure: 30.21"   Gusts: NA
Location:  44.31°N, 75.45°W
Report Text: KGTB 261358Z AUTO 04004KT 10SM OVC030 M01/M04 A3021 RMK AO2 SLP238 T10071040
Loading
Personal Weather Stations






























Interactive Weather Map New forecast layout! Learn more

10-Day Weather Forecast

Advertisements
Track Severe Weather on mobile